Truesdail, Missouri
Current Conditions -  °F | °C
As of 2:35 PM on Thursday 23 Oct 2014 (Local Time) from KFYG Reporting Station
Scattered Clouds Scattered Clouds  
Wind Chill: 64°   Ceiling: Unl
Heat Index: 64°   Visibility: 10mi
Dew Point: 46°   Wind: 6mph
Humidity: 52%   Direction: 190°S
Pressure: 30.11"   Gusts: NA
Location:  38.7835°N, 91.2441°W
Report Text: KFYG 231935Z AUTO 19005KT 10SM SCT110 18/08 A3011 RMK AO2
Loading
Personal Weather Stations






























Interactive Weather Map
Tropical Storm Tracking
New forecast layout! Learn more

10-Day Weather Forecast

Advertisements
Track Severe Weather on mobile